Terminal Aerodrome Forecast
Issued by NWS Riverton, WY

Home | Current Version | Previous Version | Text Only | Print | Product List | Glossary On
Versions: 1 2 3 4 5 6 7 8 9 10 11 12 13 14 15 16
000
FTUS45 KRIW 181100
TAFRIW
TAF
KRIW 181131Z 1812/1912 VRB06KT P6SM FEW120 BKN200
     FM181800 23014G20KT P6SM FEW110 BKN200
     FM182200 26018G30KT P6SM SCT100 BKN200
     FM190100 29015G25KT P6SM FEW100 SCT250
     FM190600 31011KT P6SM SKC=

USA.gov is the U.S. government's official web portal to all federal, state and local government web resources and services.